Time;durP1;ratioP1;P1;durP2;ratioP2;P2;SDS_P1;SDS_P2;PMS_P1;PMS_P2;Temp;Humidity;BMP_temperature;BMP_pressure;BME280_temperature;BME280_humidity;BME280_pressure;Samples;Min_cycle;Max_cycle;Signal;HPM_P1;HPM_P2
2022/11/10 00:00:37;;;;;;;62.15;36.50;;;;;;;11.80;63.76;100456.78;5049911;28;20025;-44
2022/11/10 00:03:06;;;;;;;63.55;36.13;;;;;;;11.88;63.48;100453.16;5049951;28;20345;-44
2022/11/10 00:05:32;;;;;;;58.20;36.35;;;;;;;11.82;62.79;100440.59;5049724;28;20027;-45
2022/11/10 00:08:03;;;;;;;65.97;36.00;;;;;;;11.87;62.29;100455.00;5049663;28;20025;-44
2022/11/10 00:10:28;;;;;;;60.45;36.90;;;;;;;11.71;62.58;100440.13;5050990;28;20033;-45
2022/11/10 00:12:54;;;;;;;60.67;36.00;;;;;;;11.74;62.57;100460.22;5053752;28;20074;-44
2022/11/10 00:18:04;;;;;;;63.25;37.05;;;;;;;11.53;63.49;100445.09;5053776;28;20162;-45
2022/11/10 00:20:29;;;;;;;61.40;36.33;;;;;;;11.56;63.04;100442.06;5053849;28;20104;-44
2022/11/10 00:22:55;;;;;;;65.85;37.45;;;;;;;11.35;64.80;100434.91;5053924;28;20484;-43
2022/11/10 00:25:21;;;;;;;60.95;36.67;;;;;;;11.27;64.71;100441.19;5053641;28;20191;-44
2022/11/10 00:27:46;;;;;;;64.28;36.50;;;;;;;11.31;63.72;100441.66;5053861;28;20024;-43
2022/11/10 00:30:12;;;;;;;63.60;37.05;;;;;;;11.37;63.35;100442.72;5052096;28;20482;-43
2022/11/10 00:32:37;;;;;;;68.43;38.30;;;;;;;11.29;64.04;100438.31;5053361;28;20023;-43
2022/11/10 00:35:03;;;;;;;62.50;36.40;;;;;;;11.34;64.03;100436.72;5053463;28;20025;-44
2022/11/10 00:37:28;;;;;;;67.20;37.55;;;;;;;11.12;64.21;100440.44;5053530;28;20463;-45
2022/11/10 00:39:54;;;;;;;61.40;37.53;;;;;;;11.19;64.83;100435.97;5053428;28;20021;-43
2022/11/10 00:42:19;;;;;;;71.32;38.90;;;;;;;11.12;64.32;100435.13;5053277;28;20024;-44
2022/11/10 00:44:45;;;;;;;64.25;38.38;;;;;;;11.17;64.66;100431.88;5053273;28;20027;-43
2022/11/10 00:47:11;;;;;;;63.53;38.08;;;;;;;11.26;64.12;100431.53;5053231;28;20024;-44
2022/11/10 00:49:37;;;;;;;68.20;38.90;;;;;;;11.16;64.14;100423.06;5053195;28;20044;-44
2022/11/10 00:52:03;;;;;;;67.40;38.25;;;;;;;11.21;63.71;100430.47;5053390;28;20123;-44
2022/11/10 00:54:28;;;;;;;66.47;38.65;;;;;;;11.15;63.74;100429.38;5053849;28;20352;-44
2022/11/10 00:56:54;;;;;;;62.50;38.25;;;;;;;11.12;64.58;100429.78;5053728;28;20469;-44
2022/11/10 00:59:19;;;;;;;63.63;38.50;;;;;;;11.08;64.57;100431.16;5053551;28;20024;-44
2022/11/10 01:01:45;;;;;;;68.35;38.00;;;;;;;10.94;65.42;100425.69;5053679;28;20036;-44
2022/11/10 01:04:10;;;;;;;63.92;37.55;;;;;;;11.03;65.04;100433.59;5052937;28;20019;-44
2022/11/10 01:06:36;;;;;;;65.45;38.55;;;;;;;11.01;64.84;100430.28;5053213;28;20017;-44
2022/11/10 01:09:01;;;;;;;69.43;38.63;;;;;;;10.92;64.49;100427.72;5053085;28;20028;-43
2022/11/10 01:11:27;;;;;;;61.33;38.45;;;;;;;10.99;64.09;100427.00;5052765;28;20473;-45
2022/11/10 01:13:54;;;;;;;69.05;40.50;;;;;;;10.93;64.67;100424.06;5053011;28;20017;-43
2022/11/10 01:16:31;;;;;;;67.20;39.65;;;;;;;10.94;64.45;100425.69;5050390;28;20028;-43
2022/11/10 01:19:01;;;;;;;66.50;40.50;;;;;;;10.85;65.45;100428.66;5053128;28;20021;-43
2022/11/10 01:21:27;;;;;;;69.25;40.00;;;;;;;10.80;66.09;100428.44;5052966;28;20064;-43
2022/11/10 01:23:53;;;;;;;64.85;38.78;;;;;;;10.83;66.15;100428.03;5052617;28;20029;-46
2022/11/10 01:26:19;;;;;;;64.13;37.92;;;;;;;10.67;65.83;100423.78;5053090;28;20028;-44
2022/11/10 01:28:45;;;;;;;65.18;38.17;;;;;;;10.63;66.18;100431.31;5053491;28;20032;-43
2022/11/10 01:31:13;;;;;;;68.35;38.30;;;;;;;10.74;65.63;100427.34;5052515;28;20476;-44
2022/11/10 01:33:39;;;;;;;65.30;38.88;;;;;;;10.86;65.73;100428.50;5052793;28;20410;-43
2022/11/10 01:36:05;;;;;;;64.22;38.97;;;;;;;10.92;65.11;100418.91;5052893;28;20056;-45
2022/11/10 01:38:33;;;;;;;65.43;37.53;;;;;;;11.02;64.93;100422.09;5053042;28;20103;-44
2022/11/10 01:41:00;;;;;;;60.33;38.53;;;;;;;11.07;63.68;100417.03;5052988;28;20025;-44
2022/11/10 01:43:26;;;;;;;65.63;36.95;;;;;;;11.09;63.86;100420.31;5052712;28;20158;-44
2022/11/10 01:45:59;;;;;;;66.35;38.03;;;;;;;10.99;63.86;100419.81;5052928;28;20372;-44
2022/11/10 01:48:44;;;;;;;64.75;38.45;;;;;;;10.99;63.58;100416.34;5052958;28;20025;-44
2022/11/10 01:51:36;;;;;;;62.45;38.75;;;;;;;11.03;64.57;100426.41;5052357;28;20025;-45
2022/11/10 01:54:14;;;;;;;61.58;37.40;;;;;;;10.97;64.64;100416.53;5052605;28;20488;-44
2022/11/10 01:56:46;;;;;;;65.22;37.97;;;;;;;10.80;64.49;100405.28;5052385;28;20021;-44
2022/11/10 01:59:16;;;;;;;72.30;39.08;;;;;;;10.75;64.21;100419.16;5053411;28;20059;-44
2022/11/10 02:01:45;;;;;;;67.45;38.22;;;;;;;10.76;65.12;100420.81;5052734;28;20029;-43
2022/11/10 02:04:13;;;;;;;66.70;38.50;;;;;;;10.67;65.59;100421.13;5052471;28;20025;-43
2022/11/10 02:06:42;;;;;;;62.53;38.85;;;;;;;10.75;65.20;100419.16;5052318;28;20154;-44
2022/11/10 02:09:07;;;;;;;57.95;36.17;;;;;;;10.89;64.15;100413.97;5052247;28;20051;-44
2022/11/10 02:11:34;;;;;;;61.13;37.45;;;;;;;10.89;64.56;100413.97;5051793;28;20476;-44
2022/11/10 02:14:00;;;;;;;62.33;38.33;;;;;;;10.75;64.52;100419.16;5052199;28;20028;-43
2022/11/10 02:16:26;;;;;;;62.45;37.10;;;;;;;10.52;65.35;100423.81;5052268;28;20021;-44
2022/11/10 02:18:51;;;;;;;64.22;37.90;;;;;;;10.57;65.40;100424.88;5052318;28;20036;-44
2022/11/10 02:21:18;;;;;;;60.70;36.17;;;;;;;10.50;65.46;100421.31;5052342;28;20025;-44
2022/11/10 02:23:49;;;;;;;58.90;37.03;;;;;;;10.43;66.36;100423.06;5052263;28;20366;-44
2022/11/10 02:26:25;;;;;;;63.90;37.40;;;;;;;10.37;66.29;100427.28;5052029;28;20063;-44
2022/11/10 02:28:50;;;;;;;62.33;37.67;;;;;;;10.22;66.99;100434.44;5051843;28;20056;-44
2022/11/10 02:31:16;;;;;;;63.35;37.40;;;;;;;10.21;66.94;100427.47;5052446;28;20053;-42
2022/11/10 02:33:42;;;;;;;60.60;35.97;;;;;;;10.42;66.13;100436.59;5051276;28;20401;-43
2022/11/10 02:36:08;;;;;;;58.78;36.28;;;;;;;10.50;66.40;100433.81;5052149;28;20127;-43
2022/11/10 02:38:33;;;;;;;55.72;35.97;;;;;;;10.53;66.10;100434.25;5051753;28;20028;-45
2022/11/10 02:40:59;;;;;;;62.25;36.58;;;;;;;10.69;65.25;100440.38;5051514;28;20025;-45
2022/11/10 02:43:24;;;;;;;59.63;36.05;;;;;;;10.67;64.39;100447.72;5052057;28;20027;-46
2022/11/10 02:45:50;;;;;;;62.70;36.28;;;;;;;10.67;64.58;100442.41;5051607;28;20548;-46
2022/11/10 02:48:15;;;;;;;62.78;36.45;;;;;;;10.35;65.52;100431.16;5051744;28;20087;-45
2022/11/10 02:50:41;;;;;;;60.05;35.65;;;;;;;10.28;66.51;100443.50;5051451;28;20047;-44
2022/11/10 02:53:07;;;;;;;60.03;36.03;;;;;;;10.46;65.18;100446.66;5051123;28;20087;-44
2022/11/10 02:55:33;;;;;;;56.60;35.80;;;;;;;10.47;65.34;100453.66;5051510;28;20029;-44
2022/11/10 02:57:58;;;;;;;61.65;35.90;;;;;;;10.42;64.99;100440.06;5050205;28;20100;-45
2022/11/10 03:00:24;;;;;;;61.83;36.90;;;;;;;10.48;65.10;100452.63;5050129;28;20029;-44
2022/11/10 03:03:00;;;;;;;66.40;38.42;;;;;;;10.46;65.05;100454.63;5051452;28;20025;-44
2022/11/10 03:05:30;;;;;;;61.78;38.08;;;;;;;10.35;64.60;100457.75;5051516;28;20029;-44
2022/11/10 03:07:58;;;;;;;61.80;37.95;;;;;;;10.29;65.42;100461.13;5051491;28;20040;-45
2022/11/10 03:10:24;;;;;;;66.38;37.22;;;;;;;10.20;65.56;100451.59;5051221;28;20064;-45
2022/11/10 03:12:56;;;;;;;60.38;37.30;;;;;;;10.16;64.77;100451.13;5051640;28;20074;-44
2022/11/10 03:15:22;;;;;;;65.43;37.63;;;;;;;10.02;65.36;100452.78;5050936;28;20067;-44
2022/11/10 03:17:48;;;;;;;61.75;37.10;;;;;;;9.88;66.25;100450.94;5050910;28;20445;-45
2022/11/10 03:20:14;;;;;;;64.18;37.65;;;;;;;9.96;66.56;100453.53;5051166;28;20663;-46
2022/11/10 03:22:39;;;;;;;62.22;37.88;;;;;;;10.22;65.17;100450.41;5051078;28;20024;-44
2022/11/10 03:25:05;;;;;;;55.55;35.88;;;;;;;10.09;65.38;100452.88;5050801;28;20076;-44
2022/11/10 03:27:31;;;;;;;63.80;36.88;;;;;;;9.96;65.92;100446.38;5050992;28;20127;-44
2022/11/10 03:29:56;;;;;;;61.05;37.15;;;;;;;10.06;65.77;100453.25;5050848;28;20115;-44
2022/11/10 03:32:22;;;;;;;60.13;36.50;;;;;;;10.07;64.73;100453.06;5050354;28;20045;-44
2022/11/10 03:34:47;;;;;;;61.42;36.78;;;;;;;10.02;65.24;100452.78;5050846;28;20035;-44
2022/11/10 03:37:12;;;;;;;60.92;35.95;;;;;;;10.03;64.46;100450.94;5050858;28;20020;-45
2022/11/10 03:39:38;;;;;;;66.45;37.88;;;;;;;9.91;64.72;100451.41;5050179;28;20021;-46
2022/11/10 03:42:04;;;;;;;59.78;37.67;;;;;;;10.01;64.90;100451.13;5050438;28;20024;-44
2022/11/10 03:44:29;;;;;;;63.33;36.35;;;;;;;10.00;65.08;100443.34;5050013;28;20511;-45
2022/11/10 03:46:55;;;;;;;60.78;35.55;;;;;;;9.76;65.42;100446.06;5050354;28;20017;-43
2022/11/10 03:49:20;;;;;;;63.30;37.08;;;;;;;9.92;65.43;100446.94;5052392;28;20095;-44
2022/11/10 03:51:45;;;;;;;66.45;37.13;;;;;;;9.97;64.85;100447.19;5057756;28;20027;-45
2022/11/10 03:54:11;;;;;;;59.95;34.92;;;;;;;9.86;65.84;100448.47;5050412;28;20082;-44
2022/11/10 03:56:36;;;;;;;66.72;35.35;;;;;;;9.96;65.23;100448.22;5050705;28;20092;-45
2022/11/10 03:59:02;;;;;;;59.03;33.47;;;;;;;9.61;66.87;100449.69;5050456;28;20481;-43
2022/11/10 04:01:27;;;;;;;58.33;34.95;;;;;;;9.63;67.01;100451.16;5049922;28;20396;-44
2022/11/10 04:03:53;;;;;;;60.88;35.88;;;;;;;9.72;66.40;100447.44;5050454;28;20029;-45
2022/11/10 04:09:03;;;;;;;60.05;35.25;;;;;;;9.65;65.73;100443.81;5050279;28;20039;-42
2022/11/10 04:17:00;;;;;;;71.55;39.83;;;;;;;9.48;66.28;100451.16;5050899;28;20060;-44
2022/11/10 04:19:25;;;;;;;64.63;36.17;;;;;;;9.52;65.86;100444.47;5050499;28;20455;-43
2022/11/10 04:21:51;;;;;;;69.05;36.47;;;;;;;9.52;65.88;100454.25;5052569;28;20020;-44
2022/11/10 04:24:16;;;;;;;76.50;35.90;;;;;;;9.60;65.57;100451.53;5049219;28;21488;-43
2022/11/10 04:26:43;;;;;;;60.15;34.95;;;;;;;9.49;65.99;100444.00;5062958;28;20032;-43
2022/11/10 04:29:10;;;;;;;57.33;34.72;;;;;;;9.59;65.70;100450.72;5065126;28;20048;-44
2022/11/10 04:31:38;;;;;;;63.88;35.55;;;;;;;9.27;67.25;100456.28;5047861;28;20082;-43
2022/11/10 04:34:06;;;;;;;63.60;34.35;;;;;;;9.41;66.00;100465.31;5059683;28;20028;-43
2022/11/10 04:36:33;;;;;;;56.35;34.63;;;;;;;9.44;65.53;100460.44;5049947;28;20146;-44
2022/11/10 04:38:59;;;;;;;57.83;34.13;;;;;;;9.37;65.48;100465.66;5049210;28;20043;-44
2022/11/10 04:41:26;;;;;;;61.25;35.05;;;;;;;9.38;65.61;100469.97;5048922;28;20477;-43
2022/11/10 04:43:51;;;;;;;59.08;35.70;;;;;;;9.44;65.34;100456.97;5048982;28;20025;-44
2022/11/10 04:46:16;;;;;;;59.33;34.47;;;;;;;9.30;65.63;100464.72;5049664;28;20095;-43
2022/11/10 04:48:42;;;;;;;70.57;36.65;;;;;;;9.37;65.35;100464.84;5049400;28;20044;-44
2022/11/10 04:51:08;;;;;;;59.50;35.45;;;;;;;9.26;66.04;100470.56;5049660;28;20033;-44
2022/11/10 04:53:34;;;;;;;63.40;34.92;;;;;;;9.26;65.68;100471.38;5050006;28;20021;-44
2022/11/10 04:55:59;;;;;;;60.17;34.28;;;;;;;9.39;65.06;100474.28;5049524;28;20477;-44
2022/11/10 04:58:25;;;;;;;62.10;34.58;;;;;;;9.30;65.34;100471.88;5052350;28;20021;-43
2022/11/10 05:00:50;;;;;;;62.55;35.92;;;;;;;9.31;65.24;100477.00;5052479;28;20029;-44
2022/11/10 05:03:15;;;;;;;64.20;35.78;;;;;;;9.33;65.46;100480.31;5052442;28;20417;-43
2022/11/10 05:05:41;;;;;;;52.13;33.72;;;;;;;9.30;65.82;100470.03;5052573;28;20036;-43
2022/11/10 05:08:07;;;;;;;61.83;35.92;;;;;;;9.34;65.59;100483.78;5052860;28;20033;-43
2022/11/10 05:10:37;;;;;;;57.45;33.75;;;;;;;9.34;65.97;100475.81;5051395;28;20032;-43
2022/11/10 05:13:04;;;;;;;60.58;35.40;;;;;;;9.32;66.01;100478.66;5053084;28;20037;-44
2022/11/10 05:15:30;;;;;;;66.60;37.15;;;;;;;10.13;79.03;100480.78;5053196;28;20053;-44
2022/11/10 05:17:56;;;;;;;58.85;35.88;;;;;;;10.33;73.17;100487.22;5053668;28;20024;-44
2022/11/10 05:20:23;;;;;;;55.38;32.75;;;;;;;10.21;68.14;100475.34;5052939;28;20143;-43
2022/11/10 05:25:39;;;;;;;60.05;33.60;;;;;;;10.10;64.97;100487.25;5052802;28;20543;-44
2022/11/10 05:28:06;;;;;;;63.35;32.78;;;;;;;9.99;64.95;100490.38;5052663;28;20028;-44
2022/11/10 05:30:33;;;;;;;62.38;33.45;;;;;;;9.88;64.75;100480.16;5052768;28;20389;-44
2022/11/10 05:32:58;;;;;;;64.20;35.15;;;;;;;10.11;64.12;100494.25;5052755;28;20027;-45
2022/11/10 05:35:24;;;;;;;56.58;35.13;;;;;;;10.09;63.60;100496.25;5053249;28;20112;-45
2022/11/10 05:37:50;;;;;;;63.55;35.60;;;;;;;10.11;63.36;100501.38;5052767;28;20017;-43
2022/11/10 05:40:16;;;;;;;58.83;34.33;;;;;;;10.22;61.92;100508.09;5052539;28;20024;-43
2022/11/10 05:42:52;;;;;;;63.70;32.40;;;;;;;10.24;61.30;100506.91;5052089;28;20143;-43
2022/11/10 05:45:27;;;;;;;52.50;31.33;;;;;;;10.31;60.31;100510.50;5052729;28;20024;-44
2022/11/10 05:47:53;;;;;;;49.28;29.63;;;;;;;10.32;59.81;100519.34;5052191;28;20127;-44
2022/11/10 05:50:20;;;;;;;47.35;29.52;;;;;;;10.12;59.25;100519.00;5051804;28;20033;-44
2022/11/10 05:52:47;;;;;;;51.08;30.45;;;;;;;10.34;58.84;100522.66;5051836;28;20096;-44
2022/11/10 05:55:14;;;;;;;47.55;31.25;;;;;;;10.32;58.39;100516.69;5051888;28;20063;-43
2022/11/10 05:57:47;;;;;;;50.90;30.25;;;;;;;10.54;58.26;100538.88;5051809;28;20017;-44
2022/11/10 06:00:15;;;;;;;49.72;29.23;;;;;;;10.81;58.14;100537.38;5050905;28;20136;-43
2022/11/10 06:02:41;;;;;;;48.92;30.70;;;;;;;10.93;57.90;100535.91;5051224;28;20037;-43
2022/11/10 06:05:07;;;;;;;48.22;30.02;;;;;;;11.14;56.48;100539.63;5052024;28;20138;-42
2022/11/10 06:07:32;;;;;;;48.53;29.23;;;;;;;11.31;56.67;100542.91;5051642;28;20612;-45
2022/11/10 06:09:58;;;;;;;58.72;37.63;;;;;;;11.18;57.91;100548.91;5051095;28;20471;-44
2022/11/10 06:12:29;;;;;;;57.80;32.65;;;;;;;11.33;57.23;100548.88;5051666;28;20476;-42
2022/11/10 06:14:56;;;;;;;50.28;29.85;;;;;;;11.04;58.96;100549.75;5048972;28;20021;-43
2022/11/10 06:17:25;;;;;;;47.72;29.25;;;;;;;11.22;58.38;100544.84;5045634;28;20390;-44
2022/11/10 06:19:51;;;;;;;56.75;29.33;;;;;;;11.84;55.99;100545.22;5051142;28;20083;-42
2022/11/10 06:22:16;;;;;;;49.30;29.05;;;;;;;12.07;55.60;100558.38;5050928;28;20499;-44
2022/11/10 06:24:42;;;;;;;56.17;29.60;;;;;;;12.33;54.35;100560.41;5051051;28;20528;-44
2022/11/10 06:27:07;;;;;;;46.38;28.70;;;;;;;12.50;54.25;100555.59;5051052;28;20376;-44
2022/11/10 06:29:33;;;;;;;54.95;30.08;;;;;;;12.70;53.50;100564.56;5050602;28;20017;-43
2022/11/10 06:31:58;;;;;;;44.65;28.38;;;;;;;12.74;53.40;100562.31;5051494;28;20045;-44
2022/11/10 06:34:23;;;;;;;43.25;27.98;;;;;;;12.86;53.26;100563.38;5051361;28;20057;-44
2022/11/10 06:36:49;;;;;;;47.38;28.63;;;;;;;13.15;52.31;100561.44;5051112;28;20194;-45
2022/11/10 06:39:14;;;;;;;50.60;28.90;;;;;;;13.16;52.41;100565.78;5051065;28;20035;-44
2022/11/10 06:41:40;;;;;;;48.83;29.15;;;;;;;13.41;51.73;100567.94;5051026;28;20032;-45
2022/11/10 06:44:05;;;;;;;50.13;28.48;;;;;;;13.62;51.53;100562.44;5050865;28;20029;-45
2022/11/10 06:46:31;;;;;;;59.30;27.83;;;;;;;13.62;51.78;100566.97;5051025;28;20028;-45
2022/11/10 06:48:56;;;;;;;59.10;28.38;;;;;;;13.91;50.65;100560.38;5050407;28;20028;-44
2022/11/10 06:51:22;;;;;;;48.28;29.42;;;;;;;14.16;51.68;100562.44;5050242;28;20381;-45
2022/11/10 06:53:47;;;;;;;46.97;28.88;;;;;;;14.49;52.24;100562.41;5050553;28;20033;-46
2022/11/10 06:56:12;;;;;;;46.15;27.15;;;;;;;14.94;51.87;100573.22;5051404;28;20024;-47
2022/11/10 06:58:38;;;;;;;44.72;28.60;;;;;;;15.08;49.79;100570.50;5039384;28;20369;-45
2022/11/10 07:01:03;;;;;;;45.13;28.17;;;;;;;14.93;50.48;100573.47;5033258;28;20037;-44
2022/11/10 07:03:29;;;;;;;42.83;27.85;;;;;;;15.57;54.30;100569.84;5048514;28;20029;-45
2022/11/10 07:05:54;;;;;;;50.53;28.50;;;;;;;16.26;50.87;100569.94;5050411;28;20118;-45
2022/11/10 07:08:20;;;;;;;48.92;26.92;;;;;;;16.78;47.67;100569.63;5050395;28;20029;-45
2022/11/10 07:10:52;;;;;;;43.38;27.70;;;;;;;16.78;50.58;100570.44;5049906;28;20033;-45
2022/11/10 07:13:17;;;;;;;49.40;27.67;;;;;;;17.20;45.81;100584.00;5050535;28;20167;-44
2022/11/10 07:15:43;;;;;;;49.25;28.30;;;;;;;17.34;43.25;100571.22;5048994;28;20110;-43
2022/11/10 07:18:08;;;;;;;47.38;29.42;;;;;;;17.27;43.06;100565.13;5050396;28;20397;-43
2022/11/10 07:20:34;;;;;;;55.72;29.67;;;;;;;17.17;43.50;100576.41;5048628;28;20040;-44
2022/11/10 07:23:02;;;;;;;45.03;28.55;;;;;;;17.03;43.30;100574.13;5049004;28;20032;-45
2022/11/10 07:25:30;;;;;;;50.58;29.52;;;;;;;17.07;43.11;100576.13;5048121;28;20053;-45
2022/11/10 07:27:57;;;;;;;48.15;28.83;;;;;;;16.71;43.77;100571.56;5049752;28;20078;-43
2022/11/10 07:30:23;;;;;;;49.08;28.10;;;;;;;16.63;44.14;100569.97;5050055;28;20029;-44
2022/11/10 07:33:04;;;;;;;54.40;28.63;;;;;;;16.51;44.66;100574.47;5050737;28;20047;-45
2022/11/10 07:35:29;;;;;;;;;;;;;;;16.41;44.40;100572.25;5051518;28;20033;-44
2022/11/10 07:38:00;;;;;;;49.78;26.92;;;;;;;16.37;44.75;100554.94;5050144;28;19918;-44
2022/11/10 07:40:26;;;;;;;53.00;27.20;;;;;;;16.40;44.74;100565.25;5048937;28;20406;-44
2022/11/10 07:42:52;;;;;;;49.45;27.73;;;;;;;16.69;44.06;100568.28;5050207;28;20255;-44
2022/11/10 07:45:17;;;;;;;44.50;26.95;;;;;;;16.73;44.44;100577.53;5050503;28;20372;-46
2022/11/10 07:47:43;;;;;;;43.83;27.25;;;;;;;17.07;43.29;100568.03;5050155;28;20090;-44
2022/11/10 07:50:08;;;;;;;49.63;27.85;;;;;;;17.39;43.32;100563.28;5049996;28;20021;-43
2022/11/10 07:52:34;;;;;;;43.28;27.10;;;;;;;17.31;42.60;100573.56;5050065;28;20527;-44
2022/11/10 07:54:59;;;;;;;47.38;26.90;;;;;;;17.53;42.49;100571.16;5049999;28;20051;-45
2022/11/10 07:57:25;;;;;;;47.05;26.58;;;;;;;17.77;42.13;100572.06;5050218;28;20396;-44
2022/11/10 07:59:50;;;;;;;47.20;28.23;;;;;;;17.68;42.47;100573.44;5050204;28;20483;-43
2022/11/10 08:02:15;;;;;;;48.67;29.08;;;;;;;17.57;42.58;100575.88;5049949;28;20029;-43
2022/11/10 08:04:41;;;;;;;45.90;27.73;;;;;;;17.19;43.13;100577.00;5049955;28;20031;-44
2022/11/10 08:07:06;;;;;;;47.85;27.55;;;;;;;17.48;43.45;100573.75;5049981;28;20028;-44
2022/11/10 08:09:32;;;;;;;42.92;27.67;;;;;;;17.05;43.62;100575.53;5050204;28;20472;-44
2022/11/10 08:11:57;;;;;;;46.00;27.33;;;;;;;16.42;45.98;100576.59;5050056;28;20381;-44
2022/11/10 08:14:23;;;;;;;49.17;27.75;;;;;;;16.83;46.81;100577.03;5050195;28;20044;-45
2022/11/10 08:16:49;;;;;;;49.05;27.48;;;;;;;17.02;44.81;100554.47;5049936;28;20017;-44
2022/11/10 08:19:15;;;;;;;49.83;28.35;;;;;;;17.63;43.63;100578.66;5049850;28;20665;-44
2022/11/10 08:21:40;;;;;;;46.53;28.80;;;;;;;17.37;44.08;100576.13;5049432;28;20033;-44
2022/11/10 08:24:06;;;;;;;55.72;28.73;;;;;;;17.42;44.48;100582.69;5049413;28;20136;-43
2022/11/10 08:26:31;;;;;;;45.95;28.85;;;;;;;17.37;45.22;100583.41;5048106;28;20033;-43
2022/11/10 08:28:57;;;;;;;44.45;28.52;;;;;;;17.51;44.88;100581.34;5049600;28;20056;-44
2022/11/10 08:31:23;;;;;;;48.83;29.15;;;;;;;17.17;45.60;100584.47;5050277;28;20507;-38
2022/11/10 08:33:48;;;;;;;48.50;29.58;;;;;;;16.93;46.67;100586.22;5053657;28;20048;-37
2022/11/10 08:36:14;;;;;;;48.25;29.50;;;;;;;16.86;46.20;100587.34;5054092;28;20392;-38
2022/11/10 08:38:39;;;;;;;43.80;28.70;;;;;;;17.32;45.93;100592.13;5053678;28;20024;-37
2022/11/10 08:41:05;;;;;;;47.28;28.77;;;;;;;17.35;45.51;100577.44;5053625;28;20499;-36
2022/11/10 08:43:30;;;;;;;44.22;28.63;;;;;;;17.51;45.52;100584.84;5053668;28;20473;-37
2022/11/10 08:45:56;;;;;;;46.97;29.60;;;;;;;18.07;45.28;100579.28;5053545;28;20029;-37
2022/11/10 08:48:21;;;;;;;49.47;28.50;;;;;;;18.16;44.73;100581.41;5053681;28;20031;-37
2022/11/10 08:50:51;;;;;;;50.75;28.73;;;;;;;18.59;43.86;100575.88;5053718;28;20115;-37
2022/11/10 08:53:20;;;;;;;49.78;28.45;;;;;;;18.59;43.42;100573.19;5053311;28;20493;-38
2022/11/10 08:55:46;;;;;;;47.30;28.38;;;;;;;18.91;43.00;100574.44;5053477;28;20033;-38
2022/11/10 08:58:14;;;;;;;48.30;28.27;;;;;;;18.89;42.81;100575.75;5053253;28;20025;-37
2022/11/10 09:00:39;;;;;;;44.00;29.17;;;;;;;18.92;43.04;100570.69;5053316;28;20504;-38
2022/11/10 09:03:12;;;;;;;44.58;28.48;;;;;;;18.87;43.30;100569.78;5053484;28;20025;-38
2022/11/10 09:05:38;;;;;;;42.78;27.95;;;;;;;18.81;43.32;100568.00;5053509;28;20024;-38
2022/11/10 09:08:03;;;;;;;43.83;28.98;;;;;;;19.09;42.35;100562.63;5053315;28;20024;-38
2022/11/10 09:10:30;;;;;;;48.95;28.17;;;;;;;19.15;42.43;100566.25;5053249;28;20093;-38
2022/11/10 09:13:06;;;;;;;47.00;28.35;;;;;;;19.57;42.13;100567.84;5052965;28;20083;-38
2022/11/10 09:15:33;;;;;;;42.15;27.40;;;;;;;18.92;43.52;100565.28;5033224;28;20036;-37
2022/11/10 09:17:59;;;;;;;45.88;26.98;;;;;;;19.40;42.77;100570.50;5032919;28;20021;-39
2022/11/10 09:20:26;;;;;;;45.60;27.77;;;;;;;19.74;41.65;100557.91;5035893;28;20021;-37
2022/11/10 09:22:52;;;;;;;41.05;27.10;;;;;;;19.90;41.31;100562.50;5053038;28;20465;-37
2022/11/10 09:25:17;;;;;;;44.80;27.75;;;;;;;19.87;41.38;100549.47;5052608;28;20056;-37
2022/11/10 09:27:43;;;;;;;44.55;27.52;;;;;;;19.84;41.45;100558.09;5052518;28;20020;-38
2022/11/10 09:30:09;;;;;;;47.88;29.25;;;;;;;19.92;41.39;100552.28;5052906;28;20453;-37
2022/11/10 09:32:34;;;;;;;41.45;26.65;;;;;;;19.36;42.30;100556.66;5052737;28;20040;-39
2022/11/10 09:35:00;;;;;;;42.88;26.40;;;;;;;19.96;41.54;100557.19;5052785;28;20033;-36
2022/11/10 09:37:26;;;;;;;35.95;22.67;;;;;;;19.80;44.08;100548.84;5052864;28;20032;-37
2022/11/10 09:39:52;;;;;;;39.28;23.92;;;;;;;19.56;42.89;100552.72;5052485;28;20047;-36
2022/11/10 09:42:32;;;;;;;43.80;27.23;;;;;;;20.34;40.53;100542.91;5052255;28;20056;-37
2022/11/10 09:45:33;;;;;;;35.90;24.65;;;;;;;20.15;41.23;100542.34;5052168;28;20075;-37
2022/11/10 09:48:29;;;;;;;38.25;24.08;;;;;;;20.31;41.05;100536.13;5052162;28;20032;-37
2022/11/10 09:51:01;;;;;;;42.33;24.45;;;;;;;19.87;41.94;100540.56;5051355;28;20089;-37
2022/11/10 09:53:42;;;;;;;37.40;24.00;;;;;;;20.15;40.94;100544.25;5051866;28;20029;-38
2022/11/10 09:56:15;;;;;;;41.22;25.08;;;;;;;19.97;41.27;100537.19;5051962;28;20110;-39
2022/11/10 09:58:43;;;;;;;38.80;24.88;;;;;;;19.92;40.77;100521.75;5051761;28;20025;-37
2022/11/10 10:01:46;;;;;;;35.45;23.35;;;;;;;20.30;40.29;100533.66;5051643;28;20032;-37
2022/11/10 10:04:49;;;;;;;33.22;22.27;;;;;;;20.72;41.04;100543.97;5052253;28;20040;-37
2022/11/10 10:07:19;;;;;;;32.38;22.13;;;;;;;20.72;40.27;100541.28;5051812;28;20112;-37
2022/11/10 10:10:09;;;;;;;33.08;21.92;;;;;;;21.10;39.60;100539.56;5051536;28;20028;-37
2022/11/10 10:13:12;;;;;;;36.55;25.13;;;;;;;20.67;39.65;100533.91;5051735;28;20028;-38
2022/11/10 10:15:46;;;;;;;35.40;22.50;;;;;;;20.74;40.28;100533.72;5051939;28;20075;-37
2022/11/10 10:18:30;;;;;;;33.17;22.80;;;;;;;20.61;40.45;100526.78;5049856;28;20021;-38
2022/11/10 10:21:20;;;;;;;32.92;22.30;;;;;;;21.05;39.90;100518.66;5051231;28;20032;-37
2022/11/10 10:23:52;;;;;;;30.17;22.02;;;;;;;21.43;39.09;100514.16;5051596;28;20439;-37
2022/11/10 10:26:22;;;;;;;34.75;22.55;;;;;;;21.50;39.06;100507.75;5051389;28;20041;-38
2022/11/10 10:28:49;;;;;;;34.65;23.05;;;;;;;21.67;38.44;100497.63;5051527;28;20446;-38
2022/11/10 10:31:24;;;;;;;38.13;23.90;;;;;;;21.98;38.49;100511.38;5051515;28;20025;-37
2022/11/10 10:33:50;;;;;;;36.60;23.27;;;;;;;21.27;39.12;100496.97;5051369;28;20106;-37
2022/11/10 10:36:22;;;;;;;36.13;22.13;;;;;;;21.72;38.85;100494.91;5051469;28;20059;-38
2022/11/10 10:38:59;;;;;;;32.42;23.23;;;;;;;22.04;37.78;100494.88;5051236;28;20032;-37
2022/11/10 10:41:30;;;;;;;32.30;23.20;;;;;;;22.18;37.42;100492.53;5051330;28;20025;-36
2022/11/10 10:43:58;;;;;;;37.47;22.75;;;;;;;21.54;38.63;100487.22;5051509;28;20021;-36
2022/11/10 10:46:27;;;;;;;34.20;22.83;;;;;;;21.85;38.65;100480.13;5051231;28;20059;-37
2022/11/10 10:49:14;;;;;;;33.22;22.60;;;;;;;22.34;37.50;100489.94;5051315;28;20039;-37
2022/11/10 10:51:40;;;;;;;32.70;23.02;;;;;;;22.52;37.19;100484.03;5051293;28;20083;-36
2022/11/10 10:54:21;;;;;;;35.15;22.20;;;;;;;22.71;37.17;100478.94;5050769;28;20028;-37
2022/11/10 10:56:46;;;;;;;31.65;22.13;;;;;;;23.09;36.49;100478.81;5050990;28;20070;-37
2022/11/10 10:59:20;;;;;;;29.50;20.10;;;;;;;23.13;36.67;100477.19;5050760;28;20021;-36
2022/11/10 11:01:45;;;;;;;33.60;20.73;;;;;;;22.58;37.30;100476.72;5051057;28;20017;-36
2022/11/10 11:04:27;;;;;;;27.13;19.23;;;;;;;22.36;38.06;100469.59;5051246;28;20358;-37
2022/11/10 11:07:01;;;;;;;28.35;19.27;;;;;;;22.44;37.82;100465.56;5050196;28;20037;-38
2022/11/10 11:09:40;;;;;;;28.17;18.38;;;;;;;22.57;37.89;100465.06;5050669;28;20194;-36
2022/11/10 11:12:26;;;;;;;27.33;19.13;;;;;;;23.15;36.93;100459.56;5050811;28;20017;-37
2022/11/10 11:15:11;;;;;;;32.83;20.38;;;;;;;23.16;36.31;100463.09;5050344;28;20029;-36
2022/11/10 11:17:36;;;;;;;26.63;18.83;;;;;;;22.92;37.24;100460.81;5050774;28;20021;-38
2022/11/10 11:20:02;;;;;;;26.13;17.63;;;;;;;23.21;36.39;100463.09;5049039;28;20029;-37
2022/11/10 11:22:51;;;;;;;25.20;17.63;;;;;;;23.39;36.71;100459.81;5050802;28;20047;-36
2022/11/10 11:25:37;;;;;;;27.20;17.52;;;;;;;23.81;35.92;100468.81;5050479;28;20068;-39
2022/11/10 11:28:13;;;;;;;26.48;17.77;;;;;;;24.08;35.19;100459.50;5050167;28;20029;-37
2022/11/10 11:31:13;;;;;;;23.13;17.70;;;;;;;23.81;35.26;100444.34;5048611;28;20029;-37